createdAt,value
2022-12-18T09:27:29.154Z,98073.09
2022-12-18T09:29:31.889Z,98064.53
2022-12-18T09:31:35.390Z,98055.50
2022-12-18T09:33:38.091Z,98068.88
2022-12-18T09:35:42.270Z,98058.13
2022-12-18T09:37:45.040Z,98059.81
2022-12-18T09:39:47.970Z,98063.69
2022-12-18T09:41:55.344Z,98058.44
2022-12-18T09:44:03.004Z,98067.47
2022-12-18T09:46:09.985Z,98060.56
2022-12-18T09:48:20.483Z,98067.03
2022-12-18T09:50:29.532Z,98057.91
2022-12-18T09:52:37.275Z,98062.91
2022-12-18T09:54:42.270Z,98058.34
2022-12-18T09:56:45.785Z,98056.25
2022-12-18T09:58:54.311Z,98058.75
2022-12-18T10:00:58.678Z,98055.84
2022-12-18T10:03:05.532Z,98052.94
2022-12-18T10:05:12.473Z,98056.25
2022-12-18T10:07:21.145Z,98051.00
2022-12-18T10:09:36.655Z,98055.28
2022-12-18T10:11:45.974Z,98057.22
2022-12-18T10:13:54.745Z,98056.66
2022-12-18T10:16:09.793Z,98060.09
2022-12-18T10:18:31.369Z,98046.97
2022-12-18T10:20:40.142Z,98053.75
2022-12-18T10:22:52.240Z,98059.03
2022-12-18T10:25:00.271Z,98054.59
2022-12-18T10:27:14.833Z,98051.00
2022-12-18T10:29:19.113Z,98050.16
2022-12-18T10:31:25.762Z,98052.66
2022-12-18T10:33:32.503Z,98059.03
2022-12-18T10:35:36.318Z,98052.66
2022-12-18T10:38:03.941Z,98043.25
2022-12-18T10:40:18.256Z,98050.00
2022-12-18T10:42:23.028Z,98048.22
2022-12-18T10:44:27.070Z,98048.22
2022-12-18T10:46:31.350Z,98047.38
2022-12-18T10:48:36.308Z,98046.28
2022-12-18T10:53:05.971Z,98047.09
2022-12-18T10:55:19.059Z,98048.22
2022-12-18T10:57:36.840Z,98049.03
2022-12-18T10:59:53.518Z,98049.03
2022-12-18T11:01:59.607Z,98053.19
2022-12-18T11:04:09.462Z,98047.94
2022-12-18T11:06:15.091Z,98042.66
2022-12-18T11:08:23.614Z,98045.03
2022-12-18T11:10:32.613Z,98038.81
2022-12-18T11:12:35.386Z,98038.81
2022-12-18T11:14:47.880Z,98047.38
2022-12-18T11:19:34.933Z,98037.69
2022-12-18T11:21:41.696Z,98036.03
2022-12-18T11:23:49.201Z,98033.41
2022-12-18T11:25:58.889Z,98041.28
2022-12-18T11:28:03.871Z,98044.06
2022-12-18T11:30:15.363Z,98042.94
2022-12-18T11:32:32.039Z,98047.38
2022-12-18T11:34:36.400Z,98049.03
2022-12-18T11:36:43.081Z,98038.38
2022-12-18T11:38:48.433Z,98041.53
2022-12-18T11:40:58.445Z,98037.94
2022-12-18T11:43:10.501Z,98031.44
2022-12-18T11:45:27.106Z,98028.66
2022-12-18T11:47:36.361Z,98021.75
2022-12-18T11:49:47.145Z,98032.13
2022-12-18T11:51:55.577Z,98025.88
2022-12-18T11:53:58.477Z,98018.00
2022-12-18T11:56:07.812Z,98017.31
2022-12-18T11:58:18.723Z,98010.09
2022-12-18T12:00:23.121Z,97991.38
2022-12-18T12:02:43.697Z,97993.03
2022-12-18T12:05:16.352Z,97991.38
2022-12-18T12:07:35.551Z,97980.03
2022-12-18T12:09:49.809Z,97984.47
2022-12-18T12:12:03.047Z,97975.91
2022-12-18T12:14:22.409Z,97975.91
2022-12-18T12:16:31.536Z,97987.09
2022-12-18T12:18:46.877Z,97983.13
2022-12-18T12:21:01.087Z,97980.34
2022-12-18T12:23:15.025Z,97982.13
2022-12-18T12:25:35.116Z,97964.84
2022-12-18T12:27:48.366Z,97961.53
2022-12-18T12:30:02.830Z,97962.38
2022-12-18T12:32:17.421Z,97962.06
2022-12-18T12:34:24.966Z,97956.81
2022-12-18T12:36:39.853Z,97958.63
2022-12-18T12:38:52.362Z,97956.50
2022-12-18T12:41:03.515Z,97960.66
2022-12-18T12:43:18.092Z,97956.38
2022-12-18T12:45:28.722Z,97957.03
2022-12-18T12:47:39.299Z,97957.03
2022-12-18T12:49:48.363Z,97938.63
2022-12-18T12:52:00.271Z,97944.03
2022-12-18T12:54:06.802Z,97945.69
2022-12-18T12:56:12.495Z,97948.06
2022-12-18T12:58:23.766Z,97949.88
2022-12-18T13:00:30.054Z,97943.88
2022-12-18T13:02:39.020Z,97946.25
2022-12-18T13:04:48.101Z,97947.09
2022-12-18T13:07:03.271Z,97944.59
2022-12-18T13:09:06.092Z,97937.38
2022-12-18T13:11:56.206Z,97939.03
2022-12-18T13:14:02.221Z,97935.59
2022-12-18T13:16:08.388Z,97927.00
2022-12-18T13:18:20.648Z,97929.50
2022-12-18T13:20:34.363Z,97927.69
2022-12-18T13:22:41.076Z,97933.78
2022-12-18T13:24:43.911Z,97937.38
2022-12-18T13:26:46.586Z,97925.22
2022-12-18T13:28:54.737Z,97921.59
2022-12-18T13:30:58.704Z,97929.19
2022-12-18T13:36:04.677Z,97918.38
2022-12-18T13:38:23.699Z,97916.88
2022-12-18T13:41:00.315Z,97917.53
2022-12-18T13:43:14.956Z,97910.47
2022-12-18T13:45:54.576Z,97921.00
2022-12-18T13:47:57.346Z,97919.34
2022-12-18T13:50:00.897Z,97925.44
2022-12-18T13:52:04.494Z,97923.78
2022-12-18T13:54:22.064Z,97925.44
2022-12-18T13:56:26.381Z,97921.81
2022-12-18T13:58:30.455Z,97918.38
2022-12-18T14:00:33.343Z,97923.47
2022-12-18T14:02:36.314Z,97922.53
2022-12-18T14:04:39.065Z,97917.94
2022-12-18T14:06:43.959Z,97908.56
2022-12-18T14:08:57.669Z,97908.25
2022-12-18T14:11:04.377Z,97913.81
2022-12-18T14:13:11.422Z,97914.91
2022-12-18T14:15:27.200Z,97913.25
2022-12-18T14:17:29.955Z,97916.28
2022-12-18T14:19:33.886Z,97918.78
2022-12-18T14:21:36.743Z,97915.31
2022-12-18T14:23:42.042Z,97918.09
2022-12-18T14:25:48.285Z,97918.22
2022-12-18T14:27:55.439Z,97924.34
2022-12-18T14:29:59.172Z,97922.53
2022-12-18T14:32:17.326Z,97929.44
2022-12-18T14:34:20.724Z,97929.59
2022-12-18T14:36:25.303Z,97926.13
2022-12-18T14:38:30.690Z,97925.16
2022-12-18T14:40:33.293Z,97932.09
2022-12-18T14:42:36.065Z,97930.44
2022-12-18T14:45:05.125Z,97926.81
2022-12-18T14:47:03.139Z,97928.47
2022-12-18T14:49:20.198Z,97929.44
2022-12-18T14:51:24.567Z,97933.75
2022-12-18T14:53:35.521Z,97935.53
2022-12-18T14:55:39.496Z,97929.44
2022-12-18T14:57:47.194Z,97927.81
2022-12-18T14:59:51.788Z,97927.81
2022-12-18T15:02:01.824Z,97919.75
2022-12-18T15:04:07.758Z,97921.56
2022-12-18T15:06:26.197Z,97926.81
2022-12-18T15:08:32.425Z,97938.19
2022-12-18T15:10:36.653Z,97934.72
2022-12-18T15:12:41.855Z,97937.34
2022-12-18T15:14:44.534Z,97929.44
2022-12-18T15:16:55.571Z,97927.81
2022-12-18T15:18:58.267Z,97940.97
2022-12-18T15:21:09.412Z,97936.63
2022-12-18T15:23:16.826Z,97934.97
2022-12-18T15:25:33.926Z,97942.88
2022-12-18T15:27:38.783Z,97948.13
2022-12-18T15:29:44.798Z,97948.13
2022-12-18T15:32:00.733Z,97932.50
2022-12-18T15:34:15.639Z,97946.34
2022-12-18T15:36:21.342Z,97943.84
2022-12-18T15:38:29.823Z,97942.03
2022-12-18T15:40:32.679Z,97932.66
2022-12-18T15:42:52.764Z,97947.63
2022-12-18T15:44:55.645Z,97945.28
2022-12-18T15:47:00.367Z,97942.66
2022-12-18T15:49:04.678Z,97941.81
2022-12-18T15:51:13.731Z,97947.91
2022-12-18T15:53:16.507Z,97938.50
2022-12-18T15:55:38.619Z,97935.88
2022-12-18T15:57:42.202Z,97937.81
2022-12-18T15:59:44.953Z,97943.22
2022-12-18T16:01:49.398Z,97944.34
2022-12-18T16:03:54.711Z,97952.91
2022-12-18T16:05:59.299Z,97943.50
2022-12-18T16:08:03.131Z,97944.63
2022-12-18T16:10:06.371Z,97947.94
2022-12-18T16:12:17.320Z,97943.66
2022-12-18T16:14:21.699Z,97943.50
2022-12-18T16:16:24.476Z,97936.44
2022-12-18T16:18:28.243Z,97942.69
2022-12-18T16:20:32.323Z,97937.41
2022-12-18T16:22:35.316Z,97945.16
2022-12-18T16:24:38.357Z,97939.91
2022-12-18T16:26:42.854Z,97934.63
2022-12-18T16:28:48.496Z,97926.59
2022-12-18T16:30:51.376Z,97930.22
2022-12-18T16:32:54.223Z,97937.28
2022-12-18T16:35:03.034Z,97951.25
2022-12-18T16:37:10.722Z,97952.22
2022-12-18T16:39:13.402Z,97950.28
2022-12-18T16:41:32.883Z,97951.25
2022-12-18T16:43:35.794Z,97947.13
2022-12-18T16:45:38.449Z,97958.47
2022-12-18T16:47:43.358Z,97958.75
2022-12-18T16:49:46.899Z,97942.97
2022-12-18T16:51:49.899Z,97945.47
2022-12-18T16:53:56.219Z,97951.69
2022-12-18T16:55:58.986Z,97956.13
2022-12-18T16:58:01.799Z,97956.13
2022-12-18T17:00:06.313Z,97956.81
2022-12-18T17:02:15.543Z,97952.38
2022-12-18T17:04:19.857Z,97956.66
2022-12-18T17:06:23.306Z,97947.25
2022-12-18T17:08:26.035Z,97944.34
2022-12-18T17:10:35.842Z,97948.63
2022-12-18T17:12:38.623Z,97943.22
2022-12-18T17:14:41.715Z,97940.72
2022-12-18T17:16:44.494Z,97930.22
2022-12-18T17:18:47.461Z,97930.88
2022-12-18T17:20:50.234Z,97923.56
2022-12-18T17:22:52.951Z,97926.03
2022-12-18T17:24:55.644Z,97915.50
2022-12-18T17:27:00.117Z,97934.31
2022-12-18T17:29:03.545Z,97921.16
2022-12-18T17:31:13.368Z,97921.16
2022-12-18T17:33:16.217Z,97929.72
2022-12-18T17:35:18.889Z,97943.59
2022-12-18T17:37:21.675Z,97953.56
2022-12-18T17:39:24.668Z,97956.34
2022-12-18T17:41:28.313Z,97967.84
2022-12-18T17:43:32.989Z,97968.66
2022-12-18T17:45:37.225Z,97966.72
2022-12-18T17:47:40.166Z,97971.97
2022-12-18T17:49:43.169Z,97967.84
2022-12-18T17:51:46.279Z,97970.47
2022-12-18T17:53:51.539Z,97968.13
2022-12-18T17:55:56.917Z,97966.19
2022-12-18T17:58:01.756Z,97972.25
2022-12-18T18:00:07.097Z,97955.66
2022-12-18T18:02:14.707Z,97945.13
2022-12-18T18:04:18.803Z,97922.84
2022-12-18T18:06:24.062Z,97924.28
2022-12-18T18:08:27.689Z,97912.25
2022-12-18T18:10:30.596Z,97929.91
2022-12-18T18:12:52.250Z,97941.81
2022-12-18T18:14:56.739Z,97952.34
2022-12-18T18:17:04.471Z,97947.66
2022-12-18T18:19:10.163Z,97940.50
2022-12-18T18:21:13.085Z,97952.91
2022-12-18T18:23:18.123Z,97962.31
2022-12-18T18:25:20.947Z,97964.00
2022-12-18T18:27:24.885Z,97955.28
2022-12-18T18:29:30.211Z,97961.47
2022-12-18T18:31:34.788Z,97956.22
2022-12-18T18:33:44.406Z,97957.19
2022-12-18T18:35:54.938Z,97958.03
2022-12-18T18:37:57.779Z,97956.38
2022-12-18T18:40:06.908Z,97962.59
2022-12-18T18:42:09.654Z,97953.88
2022-12-18T18:44:12.935Z,97960.13
2022-12-18T18:46:17.189Z,97956.66
2022-12-18T18:48:19.939Z,97947.78
2022-12-18T18:50:24.037Z,97948.78
2022-12-18T18:52:26.791Z,97952.38
2022-12-18T18:54:30.969Z,97947.13
2022-12-18T18:56:56.568Z,97940.19
2022-12-18T18:59:06.397Z,97951.25
2022-12-18T19:01:12.002Z,97956.50
2022-12-18T19:03:14.692Z,97967.88
2022-12-18T19:05:17.494Z,97970.50
2022-12-18T19:07:29.859Z,97981.16
2022-12-18T19:09:33.728Z,97991.38
2022-12-18T19:11:54.000Z,97978.22
2022-12-18T19:13:57.346Z,97968.53
2022-12-18T19:16:05.837Z,97978.22
2022-12-18T19:18:08.659Z,97979.91
2022-12-18T19:20:12.125Z,97966.75
2022-12-18T19:22:15.110Z,97955.94
2022-12-18T19:24:20.618Z,97944.31
2022-12-18T19:26:28.049Z,97950.38
2022-12-18T19:28:31.156Z,97946.25
2022-12-18T19:30:33.856Z,97956.94
2022-12-18T19:32:36.629Z,97955.94
2022-12-18T19:34:39.756Z,97948.06
2022-12-18T19:36:42.891Z,97949.72
2022-12-18T19:38:46.138Z,97941.81
2022-12-18T19:40:50.665Z,97939.88
2022-12-18T19:42:53.325Z,97953.69
2022-12-18T19:44:56.391Z,97954.38
2022-12-18T19:47:00.739Z,97957.00
2022-12-18T19:49:04.351Z,97950.91
2022-12-18T19:51:08.651Z,97948.44
2022-12-18T19:53:11.339Z,97943.19
2022-12-18T19:55:15.886Z,97955.19
2022-12-18T19:57:19.991Z,97963.94
2022-12-18T19:59:23.050Z,97961.28
2022-12-18T20:01:27.182Z,97954.22
2022-12-18T20:03:32.686Z,97959.63
2022-12-18T20:05:35.680Z,97953.69
2022-12-18T20:07:40.809Z,97960.31
2022-12-18T20:09:46.073Z,97965.59
2022-12-18T20:11:50.520Z,97960.31
2022-12-18T20:13:54.838Z,97945.50
2022-12-18T20:15:57.644Z,97946.47
2022-12-18T20:18:00.322Z,97943.84
2022-12-18T20:20:03.136Z,97942.88
2022-12-18T20:22:06.298Z,97946.22
2022-12-18T20:24:09.997Z,97926.81
2022-12-18T20:26:12.924Z,97935.38
2022-12-18T20:28:16.086Z,97938.84
2022-12-18T20:30:20.492Z,97932.75
2022-12-18T20:32:24.632Z,97931.78
2022-12-18T20:34:29.721Z,97929.00
2022-12-18T20:36:33.048Z,97929.53
2022-12-18T20:38:38.934Z,97920.66
2022-12-18T20:40:43.073Z,97918.88
2022-12-18T20:42:46.049Z,97919.81
2022-12-18T20:44:51.498Z,97930.22
2022-12-18T20:46:58.169Z,97936.31
2022-12-18T20:49:00.963Z,97934.53
2022-12-18T20:51:06.395Z,97936.19
2022-12-18T20:53:09.196Z,97934.38
2022-12-18T20:55:11.887Z,97935.19
2022-12-18T20:57:18.809Z,97926.16
2022-12-18T20:59:22.941Z,97923.53
2022-12-18T21:01:26.477Z,97909.56
2022-12-18T21:03:30.974Z,97916.16
2022-12-18T21:05:35.865Z,97912.56
2022-12-18T21:07:40.298Z,97921.16
2022-12-18T21:09:43.236Z,97926.44
2022-12-18T21:12:03.197Z,97929.06
2022-12-18T21:14:08.088Z,97923.63
2022-12-18T21:16:10.816Z,97913.94
2022-12-18T21:18:13.738Z,97915.59
2022-12-18T21:20:18.886Z,97907.69
2022-12-18T21:22:22.288Z,97900.63
2022-12-18T21:24:25.963Z,97903.09
2022-12-18T21:26:32.161Z,97903.78
2022-12-18T21:28:34.921Z,97906.41
2022-12-18T21:30:38.209Z,97911.69
2022-12-18T21:32:41.012Z,97915.97
2022-12-18T21:34:47.935Z,97915.97
2022-12-18T21:36:52.415Z,97925.50
2022-12-18T21:38:56.331Z,97914.97
2022-12-18T21:40:59.734Z,97906.13
2022-12-18T21:43:19.852Z,97909.59
2022-12-18T21:45:22.857Z,97910.56
2022-12-18T21:47:26.028Z,97908.78
2022-12-18T21:49:28.810Z,97905.97
